createdAt,value
2022-08-12T00:00:50.257Z,2.20
2022-08-12T00:03:35.971Z,2.40
2022-08-12T00:06:23.451Z,2.33
2022-08-12T00:09:09.364Z,2.30
2022-08-12T00:11:55.948Z,2.70
2022-08-12T00:14:42.478Z,2.78
2022-08-12T00:17:27.832Z,2.88
2022-08-12T00:20:13.611Z,3.00
2022-08-12T00:23:00.199Z,3.53
2022-08-12T00:26:23.240Z,2.92
2022-08-12T00:29:06.182Z,3.47
2022-08-12T00:31:51.625Z,3.08
2022-08-12T00:34:37.543Z,3.42
2022-08-12T00:37:25.564Z,3.53
2022-08-12T00:40:14.326Z,3.10
2022-08-12T00:42:42.570Z,2.70
2022-08-12T00:45:11.603Z,3.00
2022-08-12T00:47:39.596Z,2.67
2022-08-12T00:50:07.070Z,3.15
2022-08-12T00:52:35.451Z,2.42
2022-08-12T00:55:04.859Z,2.38
2022-08-12T00:57:37.987Z,2.38
2022-08-12T01:00:08.721Z,2.33
2022-08-12T01:02:38.892Z,2.80
2022-08-12T01:05:35.766Z,2.40
2022-08-12T01:08:22.216Z,2.50
2022-08-12T01:11:08.479Z,2.25
2022-08-12T01:13:39.271Z,2.20
2022-08-12T01:16:08.870Z,2.60
2022-08-12T01:18:38.792Z,2.25
2022-08-12T01:21:27.828Z,2.13
2022-08-12T01:24:28.113Z,2.45
2022-08-12T01:26:59.444Z,2.08
2022-08-12T01:29:33.301Z,2.20
2022-08-12T01:32:06.234Z,2.15
2022-08-12T01:34:38.712Z,2.10
2022-08-12T01:37:08.329Z,2.33
2022-08-12T01:40:34.843Z,1.80
2022-08-12T01:42:51.973Z,2.03
2022-08-12T01:45:24.430Z,1.73
2022-08-12T01:48:13.216Z,1.80
2022-08-12T01:51:09.879Z,2.25
2022-08-12T01:54:00.131Z,2.35
2022-08-12T01:56:35.579Z,2.20
2022-08-12T01:59:23.344Z,2.22
2022-08-12T02:01:52.729Z,2.10
2022-08-12T02:04:59.435Z,2.38
2022-08-12T02:08:25.091Z,2.10
2022-08-12T02:11:25.765Z,2.10
2022-08-12T02:14:11.588Z,1.98
2022-08-12T02:16:53.426Z,2.10
2022-08-12T02:19:59.350Z,2.30
2022-08-12T02:22:31.433Z,2.30
2022-08-12T02:25:24.979Z,2.08
2022-08-12T02:27:53.561Z,2.15
2022-08-12T02:30:38.355Z,2.15
2022-08-12T02:33:10.628Z,2.35
2022-08-12T02:35:39.502Z,2.47
2022-08-12T02:38:10.093Z,2.25
2022-08-12T02:40:39.394Z,2.20
2022-08-12T02:43:34.474Z,2.08
2022-08-12T02:46:10.395Z,2.40
2022-08-12T02:48:46.323Z,2.28
2022-08-12T02:51:17.437Z,2.20
2022-08-12T02:53:45.310Z,1.80
2022-08-12T02:56:31.043Z,2.33
2022-08-12T02:58:59.463Z,1.98
2022-08-12T03:01:34.086Z,2.25
2022-08-12T03:04:04.170Z,2.38
2022-08-12T03:06:48.030Z,2.60
2022-08-12T03:09:16.679Z,2.15
2022-08-12T03:12:05.202Z,2.22
2022-08-12T03:14:35.046Z,2.20
2022-08-12T03:17:15.543Z,2.28
2022-08-12T03:20:09.527Z,2.30
2022-08-12T03:22:34.284Z,2.15
2022-08-12T03:25:03.731Z,1.85
2022-08-12T03:27:31.880Z,2.10
2022-08-12T03:29:59.541Z,2.33
2022-08-12T03:32:35.589Z,2.10
2022-08-12T03:35:07.697Z,2.25
2022-08-12T03:37:36.622Z,2.20
2022-08-12T03:40:04.978Z,2.10
2022-08-12T03:42:52.039Z,2.28
2022-08-12T03:45:52.177Z,2.40
2022-08-12T03:48:39.339Z,2.10
2022-08-12T03:54:03.119Z,1.85
2022-08-12T03:56:50.942Z,1.90
2022-08-12T03:59:36.847Z,2.58
2022-08-12T04:02:03.771Z,2.13
2022-08-12T04:04:35.067Z,2.40
2022-08-12T04:07:06.989Z,2.30
2022-08-12T04:09:34.897Z,2.40
2022-08-12T04:12:22.306Z,2.10
2022-08-12T04:14:54.365Z,2.80
2022-08-12T04:17:21.427Z,2.22
2022-08-12T04:19:49.216Z,2.67
2022-08-12T04:22:16.883Z,2.63
2022-08-12T04:24:50.524Z,2.33
2022-08-12T04:27:17.658Z,2.30
2022-08-12T04:30:29.243Z,2.80
2022-08-12T04:32:32.269Z,2.70
2022-08-12T04:34:59.460Z,2.35
2022-08-12T04:37:26.415Z,2.65
2022-08-12T04:39:54.161Z,2.75
2022-08-12T04:42:25.464Z,2.28
2022-08-12T04:44:52.569Z,2.72
2022-08-12T04:47:21.415Z,2.13
2022-08-12T04:49:49.192Z,2.45
2022-08-12T04:52:16.216Z,2.45
2022-08-12T04:54:44.024Z,2.40
2022-08-12T04:57:11.162Z,2.60
2022-08-12T04:59:47.850Z,2.15
2022-08-12T05:02:20.885Z,2.95
2022-08-12T05:05:01.118Z,2.53
2022-08-12T05:07:28.604Z,2.53
2022-08-12T05:09:59.762Z,2.58
2022-08-12T05:12:42.955Z,2.33
2022-08-12T05:15:19.178Z,2.00
2022-08-12T05:17:56.240Z,2.28
2022-08-12T05:20:27.056Z,2.38
2022-08-12T05:23:12.896Z,1.90
2022-08-12T05:25:43.044Z,2.00
2022-08-12T05:28:10.963Z,1.70
2022-08-12T05:30:37.730Z,1.90
2022-08-12T05:33:06.123Z,1.70
2022-08-12T05:35:43.130Z,1.83
2022-08-12T05:38:34.254Z,2.00
2022-08-12T05:41:02.483Z,2.10
2022-08-12T05:43:29.757Z,1.92
2022-08-12T05:45:56.732Z,1.98
2022-08-12T05:48:24.400Z,1.63
2022-08-12T05:50:52.924Z,1.90
2022-08-12T05:53:19.884Z,1.83
2022-08-12T05:55:46.713Z,1.48
2022-08-12T05:58:13.500Z,1.95
2022-08-12T06:00:42.334Z,1.65
2022-08-12T06:03:09.160Z,1.60
2022-08-12T06:05:43.045Z,1.30
2022-08-12T06:08:23.397Z,1.80
2022-08-12T06:10:50.763Z,1.60
2022-08-12T06:13:28.112Z,1.45
2022-08-12T06:15:58.897Z,1.40
2022-08-12T06:18:29.745Z,1.50
2022-08-12T06:21:00.197Z,1.70
2022-08-12T06:23:29.721Z,1.50
2022-08-12T06:25:57.927Z,2.00
2022-08-12T06:28:25.667Z,1.60
2022-08-12T06:31:22.353Z,1.40
2022-08-12T06:33:57.713Z,1.52
2022-08-12T06:36:30.061Z,1.50
2022-08-12T06:39:00.920Z,1.63
2022-08-12T06:42:05.155Z,1.85
2022-08-12T06:44:33.144Z,1.63
2022-08-12T06:47:00.732Z,1.50
2022-08-12T06:49:33.423Z,1.70
2022-08-12T06:52:00.194Z,1.60
2022-08-12T06:54:31.643Z,1.45
2022-08-12T06:57:04.733Z,1.95
2022-08-12T06:59:32.601Z,1.48
2022-08-12T07:01:59.449Z,1.35
2022-08-12T07:04:36.187Z,1.80
2022-08-12T07:07:08.808Z,1.60
2022-08-12T07:10:04.902Z,2.05
2022-08-12T07:12:26.554Z,1.80
2022-08-12T07:14:54.525Z,1.95
2022-08-12T07:17:21.401Z,1.70
2022-08-12T07:19:50.012Z,1.60
2022-08-12T07:22:16.933Z,1.80
2022-08-12T07:25:04.352Z,1.60
2022-08-12T07:27:38.718Z,1.92
2022-08-12T07:30:07.750Z,1.60
2022-08-12T07:32:34.536Z,1.75
2022-08-12T07:35:02.190Z,1.73
2022-08-12T07:37:29.158Z,2.00
2022-08-12T07:40:00.051Z,1.90
2022-08-12T07:42:29.037Z,1.75
2022-08-12T07:44:56.374Z,1.33
2022-08-12T07:47:24.444Z,1.60
2022-08-12T07:50:05.873Z,1.60
2022-08-12T07:52:38.746Z,1.40
2022-08-12T07:55:06.794Z,1.55
2022-08-12T07:57:34.136Z,1.55
2022-08-12T08:00:03.750Z,1.42
2022-08-12T08:02:35.765Z,1.50
2022-08-12T08:05:03.817Z,1.40
2022-08-12T08:07:41.283Z,1.45
2022-08-12T08:10:10.903Z,1.77
2022-08-12T08:12:58.773Z,1.52
2022-08-12T08:16:01.705Z,1.50
2022-08-12T08:18:27.607Z,1.10
2022-08-12T08:20:56.411Z,1.50
2022-08-12T08:23:43.660Z,1.35
2022-08-12T08:26:15.646Z,1.45
2022-08-12T08:28:43.324Z,1.17
2022-08-12T08:31:10.112Z,1.30
2022-08-12T08:34:05.471Z,1.67
2022-08-12T08:36:24.391Z,1.02
2022-08-12T08:38:58.218Z,1.38
2022-08-12T08:42:17.516Z,1.17
2022-08-12T08:44:39.568Z,1.35
2022-08-12T08:47:08.078Z,1.33
2022-08-12T08:49:37.386Z,0.98
2022-08-12T08:52:08.946Z,1.33
2022-08-12T08:54:37.617Z,1.20
2022-08-12T08:57:09.291Z,1.27
2022-08-12T08:59:36.200Z,1.27
2022-08-12T09:02:03.350Z,1.38
2022-08-12T09:05:13.899Z,1.33
2022-08-12T09:07:43.845Z,1.45
2022-08-12T09:10:09.219Z,1.30
2022-08-12T09:15:57.624Z,1.20
2022-08-12T09:18:33.118Z,1.20
2022-08-12T09:24:00.124Z,1.40
2022-08-12T09:26:29.737Z,1.23
2022-08-12T09:28:58.268Z,1.15
2022-08-12T09:32:07.944Z,1.10
2022-08-12T09:34:27.873Z,1.30
2022-08-12T09:37:02.877Z,1.30
2022-08-12T09:40:06.480Z,1.05
2022-08-12T09:43:11.239Z,1.30
2022-08-12T09:46:11.902Z,1.17
2022-08-12T09:48:34.942Z,1.00
2022-08-12T09:51:17.247Z,1.00
2022-08-12T09:54:05.624Z,1.00
2022-08-12T09:57:00.080Z,0.95
2022-08-12T10:00:15.137Z,0.98
2022-08-12T10:02:44.332Z,1.10
2022-08-12T10:04:59.591Z,1.15
2022-08-12T10:07:29.158Z,0.90
2022-08-12T10:10:24.354Z,1.10
2022-08-12T10:13:36.981Z,0.85
2022-08-12T10:16:38.634Z,1.10
2022-08-12T10:19:06.540Z,0.90
2022-08-12T10:21:45.309Z,0.93
2022-08-12T10:24:20.322Z,1.00
2022-08-12T10:27:06.703Z,0.90
2022-08-12T10:30:38.700Z,1.40
2022-08-12T10:32:43.766Z,1.00
2022-08-12T10:35:14.351Z,1.13
2022-08-12T10:38:36.188Z,1.13
2022-08-12T10:40:33.080Z,1.10
2022-08-12T10:43:20.086Z,0.90
2022-08-12T10:45:53.768Z,1.00
2022-08-12T10:48:33.229Z,1.30
2022-08-12T10:51:51.515Z,1.00
2022-08-12T10:54:00.549Z,0.70
2022-08-12T10:56:34.514Z,0.90
2022-08-12T10:59:10.448Z,1.23
2022-08-12T11:04:18.084Z,1.10
2022-08-12T11:04:45.132Z,0.80
2022-08-12T11:08:38.512Z,0.90
2022-08-12T11:10:02.498Z,1.00
2022-08-12T11:12:54.844Z,1.23
2022-08-12T11:15:32.709Z,1.10
2022-08-12T11:18:12.020Z,1.10
2022-08-12T11:20:48.573Z,1.20
2022-08-12T11:23:25.945Z,0.98
2022-08-12T11:26:05.884Z,1.00
2022-08-12T11:28:37.236Z,1.00
2022-08-12T11:31:12.273Z,1.00
2022-08-12T11:34:05.190Z,0.75
2022-08-12T11:36:29.749Z,1.05
2022-08-12T11:38:57.987Z,1.00
2022-08-12T11:41:31.843Z,0.90
2022-08-12T11:44:30.778Z,0.90
2022-08-12T11:46:51.514Z,1.20
2022-08-12T11:49:31.497Z,0.90
2022-08-12T11:52:01.240Z,0.88
2022-08-12T11:54:29.429Z,1.00
2022-08-12T11:56:59.817Z,1.10
2022-08-12T12:02:19.277Z,0.82
2022-08-12T12:04:52.921Z,0.98
2022-08-12T12:08:38.648Z,1.20
2022-08-12T12:10:17.912Z,1.00
2022-08-12T12:12:50.241Z,1.10
2022-08-12T12:15:25.315Z,1.33
2022-08-12T12:18:05.284Z,1.10
2022-08-12T12:20:32.054Z,0.70
2022-08-12T12:22:58.852Z,1.27
2022-08-12T12:25:59.673Z,1.20
2022-08-12T12:28:35.284Z,1.20
2022-08-12T12:31:01.236Z,1.00
2022-08-12T12:33:57.583Z,1.48
2022-08-12T12:36:24.089Z,1.00
2022-08-12T12:38:54.855Z,1.35
2022-08-12T12:41:21.876Z,0.93
2022-08-12T12:44:08.628Z,1.10
2022-08-12T12:46:40.288Z,0.80
2022-08-12T12:49:15.360Z,1.00
2022-08-12T12:51:55.100Z,1.05
2022-08-12T12:54:29.255Z,1.05
2022-08-12T12:56:56.039Z,0.90
2022-08-12T12:59:55.256Z,1.17
2022-08-12T13:02:11.405Z,0.80
2022-08-12T13:04:38.256Z,1.08
2022-08-12T13:07:06.513Z,0.95
2022-08-12T13:09:36.404Z,0.85
2022-08-12T13:12:06.539Z,1.10
2022-08-12T13:14:35.052Z,1.00
2022-08-12T13:17:02.682Z,0.80
2022-08-12T13:19:37.401Z,1.23
2022-08-12T13:22:18.439Z,1.20
2022-08-12T13:24:54.954Z,1.02
2022-08-12T13:27:35.663Z,0.90
2022-08-12T13:30:12.377Z,1.02
2022-08-12T13:32:57.340Z,1.30
2022-08-12T13:36:02.968Z,1.50
2022-08-12T13:38:13.232Z,1.65
2022-08-12T13:40:40.511Z,1.10
2022-08-12T13:43:07.490Z,1.10
2022-08-12T13:45:35.615Z,1.33
2022-08-12T13:48:05.566Z,0.93
2022-08-12T13:50:37.496Z,1.20
2022-08-12T13:53:23.171Z,1.20
2022-08-12T13:55:59.532Z,1.10
2022-08-12T13:58:30.411Z,1.33
2022-08-12T14:00:58.294Z,1.50
2022-08-12T14:03:28.263Z,1.10
2022-08-12T14:05:59.589Z,1.40
2022-08-12T14:08:34.502Z,1.10
2022-08-12T14:11:02.280Z,1.60
2022-08-12T14:14:05.411Z,1.45
2022-08-12T14:16:37.984Z,1.35
2022-08-12T14:19:10.665Z,1.17
2022-08-12T14:22:00.536Z,1.33
2022-08-12T14:24:40.711Z,1.20
2022-08-12T14:27:10.638Z,1.40
2022-08-12T14:30:06.073Z,1.17
2022-08-12T14:32:34.997Z,1.35
2022-08-12T14:35:05.110Z,1.40
2022-08-12T14:37:58.008Z,1.05
2022-08-12T14:40:23.423Z,1.30
2022-08-12T14:42:55.408Z,1.38
2022-08-12T14:45:37.211Z,1.10
2022-08-12T14:48:12.961Z,1.13
2022-08-12T14:51:02.864Z,1.30
2022-08-12T14:59:24.618Z,1.30
2022-08-12T15:01:54.614Z,1.10
2022-08-12T15:04:26.126Z,1.10
2022-08-12T15:06:55.039Z,1.20
2022-08-12T15:09:29.147Z,1.17
2022-08-12T15:12:03.361Z,1.40
2022-08-12T15:14:31.982Z,1.13
2022-08-12T15:17:00.440Z,1.38
2022-08-12T15:20:33.220Z,1.20
2022-08-12T15:22:36.995Z,1.10
2022-08-12T15:25:05.275Z,1.27
2022-08-12T15:28:05.498Z,1.30
2022-08-12T15:30:34.674Z,1.35
2022-08-12T15:33:12.984Z,1.23
2022-08-12T15:35:53.267Z,1.33
2022-08-12T15:38:30.886Z,1.05
2022-08-12T15:41:00.000Z,1.02
2022-08-12T15:43:51.286Z,1.10
2022-08-12T15:46:18.658Z,1.10
2022-08-12T15:48:52.490Z,1.00
2022-08-12T15:51:59.747Z,1.52
2022-08-12T15:54:33.803Z,0.88
2022-08-12T15:57:08.165Z,1.08
2022-08-12T16:00:04.626Z,0.90
2022-08-12T16:02:26.669Z,0.90
2022-08-12T16:04:54.471Z,1.02
2022-08-12T16:07:25.981Z,0.80
2022-08-12T16:10:06.890Z,1.00
2022-08-12T16:12:54.667Z,1.10
2022-08-12T16:15:29.503Z,1.23
2022-08-12T16:18:25.936Z,0.95
2022-08-12T16:20:49.733Z,1.20
2022-08-12T16:23:36.386Z,1.63
2022-08-12T16:26:14.645Z,1.02
2022-08-12T16:28:42.522Z,1.20
2022-08-12T16:31:16.968Z,0.80
2022-08-12T16:33:59.467Z,1.10
2022-08-12T16:36:29.132Z,0.80
2022-08-12T16:38:55.942Z,1.02
2022-08-12T16:41:23.505Z,0.98
2022-08-12T16:43:50.510Z,1.02
2022-08-12T16:46:32.529Z,0.77
2022-08-12T16:49:04.165Z,0.90
2022-08-12T16:51:46.416Z,1.27
2022-08-12T16:54:16.497Z,0.90
2022-08-12T16:56:55.176Z,1.17
2022-08-12T16:59:30.567Z,0.93
2022-08-12T17:01:58.657Z,0.90
2022-08-12T17:04:27.508Z,1.00
2022-08-12T17:06:54.486Z,1.05
2022-08-12T17:09:21.983Z,1.15
2022-08-12T17:11:49.989Z,1.00
2022-08-12T17:14:22.956Z,1.20
2022-08-12T17:16:52.521Z,0.85
2022-08-12T17:19:20.554Z,1.00
2022-08-12T17:22:08.931Z,0.90
2022-08-12T17:24:43.770Z,1.27
2022-08-12T17:27:15.832Z,1.10
2022-08-12T17:30:02.814Z,1.83
2022-08-12T17:32:33.558Z,1.92
2022-08-12T17:35:19.759Z,1.95
2022-08-12T17:37:48.490Z,2.20
2022-08-12T17:40:35.324Z,2.47
2022-08-12T17:43:55.587Z,1.95
2022-08-12T17:45:56.339Z,2.13
2022-08-12T17:48:34.974Z,2.90
2022-08-12T17:51:15.717Z,1.92
2022-08-12T17:54:10.953Z,1.38
2022-08-12T17:56:33.220Z,1.40
2022-08-12T17:59:00.926Z,1.30
2022-08-12T18:01:29.273Z,1.42
2022-08-12T18:04:21.547Z,1.42
2022-08-12T18:06:51.989Z,1.20
2022-08-12T18:09:21.810Z,1.20
2022-08-12T18:12:12.143Z,1.17
2022-08-12T18:14:41.643Z,1.10
2022-08-12T18:17:16.181Z,1.20
2022-08-12T18:20:04.274Z,1.20
2022-08-12T18:22:32.742Z,1.10
2022-08-12T18:25:03.917Z,1.38
2022-08-12T18:27:43.767Z,1.20
2022-08-12T18:30:16.360Z,1.60
2022-08-12T18:32:54.202Z,1.30
2022-08-12T18:35:47.978Z,0.93
2022-08-12T18:38:19.242Z,1.10
2022-08-12T18:41:07.312Z,1.20
2022-08-12T18:43:58.037Z,1.23
2022-08-12T18:46:53.702Z,1.13
2022-08-12T18:49:28.606Z,0.95
2022-08-12T18:52:04.138Z,1.40
2022-08-12T18:54:41.616Z,1.10
2022-08-12T18:58:06.858Z,1.75
2022-08-12T19:00:15.964Z,1.38
2022-08-12T19:02:45.319Z,1.45
2022-08-12T19:05:17.863Z,1.40
2022-08-12T19:08:00.566Z,1.70
2022-08-12T19:10:31.208Z,1.40
2022-08-12T19:13:23.515Z,1.60
2022-08-12T19:15:53.647Z,1.17
2022-08-12T19:18:22.282Z,1.40
2022-08-12T19:20:50.606Z,1.48
2022-08-12T19:23:21.021Z,1.40
2022-08-12T19:26:01.354Z,1.67
2022-08-12T19:28:35.587Z,1.50
2022-08-12T19:31:44.534Z,1.30
2022-08-12T19:38:02.636Z,1.10
2022-08-12T19:40:31.188Z,1.30
2022-08-12T19:43:17.319Z,1.38
2022-08-12T19:45:51.325Z,1.30
2022-08-12T19:48:19.791Z,1.35
2022-08-12T19:50:50.521Z,1.67
2022-08-12T19:53:22.898Z,1.20
2022-08-12T19:55:53.614Z,0.90
2022-08-12T19:58:21.551Z,1.00
2022-08-12T20:00:53.495Z,1.00
2022-08-12T20:03:38.198Z,1.17
2022-08-12T20:06:11.255Z,1.13
2022-08-12T20:08:49.276Z,1.42
2022-08-12T20:12:11.962Z,1.30
2022-08-12T20:14:18.046Z,1.10
2022-08-12T20:17:01.736Z,0.90
2022-08-12T20:20:16.809Z,1.23
2022-08-12T20:22:24.439Z,0.90
2022-08-12T20:25:01.611Z,0.93
2022-08-12T20:28:02.895Z,0.80
2022-08-12T20:30:20.627Z,1.15
2022-08-12T20:33:05.208Z,1.08
2022-08-12T20:36:05.830Z,1.05
2022-08-12T20:38:27.083Z,1.10
2022-08-12T20:40:55.914Z,0.90
2022-08-12T20:43:28.088Z,0.82
2022-08-12T20:45:58.442Z,0.82
2022-08-12T20:48:29.404Z,1.10
2022-08-12T20:51:04.299Z,0.88
2022-08-12T20:53:53.867Z,1.55
2022-08-12T20:56:30.760Z,1.70
2022-08-12T20:59:00.985Z,2.38
2022-08-12T21:01:45.923Z,2.35
2022-08-12T21:04:35.794Z,1.70
2022-08-12T21:07:08.980Z,1.50
2022-08-12T21:09:43.870Z,1.38
2022-08-12T21:12:31.201Z,1.58
2022-08-12T21:15:24.127Z,1.23
2022-08-12T21:18:11.046Z,1.30
2022-08-12T21:20:50.574Z,1.45
2022-08-12T21:23:21.101Z,1.42
2022-08-12T21:25:49.000Z,0.90
2022-08-12T21:28:21.117Z,1.20
2022-08-12T21:31:11.121Z,1.33
2022-08-12T21:33:58.465Z,1.08
2022-08-12T21:36:34.207Z,0.82
2022-08-12T21:39:18.219Z,0.80
2022-08-12T21:41:50.068Z,1.02
2022-08-12T21:44:23.983Z,1.05
2022-08-12T21:47:19.561Z,0.90
2022-08-12T21:50:02.215Z,0.88
2022-08-12T21:52:34.575Z,0.95
2022-08-12T21:55:18.936Z,0.60
2022-08-12T21:57:54.689Z,0.73
2022-08-12T22:00:34.419Z,1.00
2022-08-12T22:04:04.447Z,1.23
2022-08-12T22:06:31.501Z,1.13
2022-08-12T22:09:08.832Z,0.90
2022-08-12T22:11:44.031Z,0.73
2022-08-12T22:14:21.690Z,1.35
2022-08-12T22:16:52.402Z,1.08
2022-08-12T22:19:19.403Z,1.02
2022-08-12T22:21:52.509Z,0.82
2022-08-12T22:24:27.180Z,0.95
2022-08-12T22:27:07.938Z,0.80
2022-08-12T22:30:08.578Z,0.85
2022-08-12T22:32:41.886Z,0.80
2022-08-12T22:35:29.346Z,0.90
2022-08-12T22:38:07.529Z,1.02
2022-08-12T22:40:38.250Z,0.60
2022-08-12T22:43:24.491Z,0.90
2022-08-12T22:46:10.138Z,0.70
2022-08-12T22:48:36.922Z,0.80
2022-08-12T22:51:19.292Z,0.70
2022-08-12T22:53:49.379Z,1.20
2022-08-12T22:56:18.907Z,0.68
2022-08-12T22:58:47.193Z,0.73
2022-08-12T23:01:50.168Z,0.90
2022-08-12T23:04:03.010Z,0.80
2022-08-12T23:06:29.934Z,0.90
2022-08-12T23:08:56.784Z,0.80
2022-08-12T23:11:25.421Z,0.77
2022-08-12T23:14:04.253Z,0.80
2022-08-12T23:16:33.953Z,0.80
2022-08-12T23:19:10.531Z,0.70
2022-08-12T23:22:06.569Z,0.80
2022-08-12T23:24:56.010Z,1.00
2022-08-12T23:27:52.084Z,0.80
2022-08-12T23:30:32.347Z,1.00
2022-08-12T23:33:13.174Z,0.80
2022-08-12T23:35:59.406Z,1.10
2022-08-12T23:38:32.430Z,0.93
2022-08-12T23:41:02.036Z,0.70
2022-08-12T23:43:39.524Z,1.00
2022-08-12T23:46:08.733Z,0.82
2022-08-12T23:48:37.673Z,0.52
2022-08-12T23:51:22.727Z,0.77
2022-08-12T23:53:56.435Z,0.90
2022-08-12T23:56:27.338Z,0.90
2022-08-12T23:58:58.699Z,0.70
